Honiara, Solomon Islands
Current Conditions -  °F | °C
As of 8:00 AM on Wednesday 28 Jan 2015 (Local Time) from AGGH Reporting Station
Light Rain Light Rain  
Wind Chill: 75°   Ceiling: 10000
Heat Index: 75°   Visibility: 6mi
Dew Point: 73°   Wind: 8mph
Humidity: 94%   Direction: 320°NW
Pressure: 29.68"   Gusts: NA
Location:  9.43°S, 159.91°E
Report Text: AGGH 272100Z 32007KT 9999 -RA FEW010 SCT024 OVC100 24/23 Q1005
Loading
Personal Weather Stations






























Interactive Weather Map New forecast layout! Learn more

10-Day Weather Forecast

Advertisements
Track Severe Weather on mobile